Time;durP1;ratioP1;P1;durP2;ratioP2;P2;SDS_P1;SDS_P2;PMS_P1;PMS_P2;Temp;Humidity;BMP_temperature;BMP_pressure;BME280_temperature;BME280_humidity;BME280_pressure;Samples;Min_cycle;Max_cycle;Signal;HPM_P1;HPM_P2
2023/04/13 04:05:26;;;;;;;9.80;4.93;;;;;;;8.78;59.98;99385.84;5371447;28;19995;-86
2023/04/13 04:08:33;;;;;;;8.70;5.07;;;;;;;8.78;57.62;99388.50;5298502;33;33871;-86
2023/04/13 04:11:36;;;;;;;9.27;5.18;;;;;;;8.79;56.55;99388.31;5295539;33;33903;-86
2023/04/13 04:14:40;;;;;;;9.88;5.12;;;;;;;8.83;56.89;99386.94;5295505;33;33911;-86
2023/04/13 04:17:43;;;;;;;10.75;5.25;;;;;;;8.88;57.19;99385.50;5283954;33;33949;-89
2023/04/13 04:20:47;;;;;;;12.10;5.93;;;;;;;8.89;57.39;99392.53;5295700;33;34857;-90
2023/04/13 04:23:51;;;;;;;11.82;6.57;;;;;;;8.90;58.27;99386.97;5295810;33;34310;-90
2023/04/13 04:26:54;;;;;;;12.55;5.80;;;;;;;8.94;57.53;99390.09;5296073;33;34740;-86
2023/04/13 04:29:58;;;;;;;9.88;6.20;;;;;;;8.95;57.80;99394.44;5309236;33;33744;-86
2023/04/13 04:33:06;;;;;;;9.98;5.82;;;;;;;8.98;59.86;99386.00;5298325;33;33846;-86
2023/04/13 04:36:13;;;;;;;15.20;6.40;;;;;;;8.97;58.45;99395.09;5296462;33;34317;-86
2023/04/13 04:39:22;;;;;;;14.18;6.30;;;;;;;8.99;57.21;99406.47;5285512;33;34035;-86
2023/04/13 04:42:26;;;;;;;10.82;5.75;;;;;;;9.05;58.46;99406.53;5307981;33;33803;-86
2023/04/13 04:45:29;;;;;;;10.52;5.90;;;;;;;9.11;58.10;99396.06;5287800;33;33834;-85
2023/04/13 04:48:36;;;;;;;9.85;5.50;;;;;;;9.09;56.53;99393.56;5284064;33;33924;-85
2023/04/13 04:51:39;;;;;;;9.27;5.55;;;;;;;9.14;58.25;99398.34;5295391;33;33770;-85
2023/04/13 04:54:43;;;;;;;12.13;5.43;;;;;;;9.14;56.64;99401.03;5307883;33;34706;-86
2023/04/13 04:57:48;;;;;;;11.80;5.62;;;;;;;9.18;58.95;99400.44;5288739;33;34636;-85
2023/04/13 05:00:52;;;;;;;9.15;5.62;;;;;;;9.26;58.05;99396.81;5300545;33;34176;-86
2023/04/13 05:03:55;;;;;;;10.07;5.87;;;;;;;9.27;60.62;99391.25;5283364;33;33788;-86
2023/04/13 05:06:58;;;;;;;10.15;5.25;;;;;;;9.35;59.00;99392.13;5295310;33;33776;-86
2023/04/13 05:10:02;;;;;;;8.98;4.50;;;;;;;9.41;57.54;99394.88;5299143;33;34052;-87
2023/04/13 05:13:06;;;;;;;9.52;4.80;;;;;;;9.43;56.67;99392.00;5303675;33;34256;-87
2023/04/13 05:16:10;;;;;;;8.90;5.28;;;;;;;9.48;55.71;99387.69;5294625;33;34348;-86
2023/04/13 05:19:13;;;;;;;6.30;4.70;;;;;;;9.50;54.68;99384.81;5294510;33;34591;-86
2023/04/13 05:22:17;;;;;;;7.65;4.90;;;;;;;9.40;54.79;99385.16;5285421;33;33894;-87
2023/04/13 05:25:20;;;;;;;8.48;4.90;;;;;;;9.37;54.07;99388.22;5301324;33;33544;-87
2023/04/13 05:28:25;;;;;;;10.90;5.15;;;;;;;9.38;54.56;99381.81;5288494;33;33925;-86
2023/04/13 05:31:28;;;;;;;10.98;5.55;;;;;;;9.37;53.52;99382.03;5272020;33;33683;-86
2023/04/13 05:34:36;;;;;;;9.77;4.40;;;;;;;9.48;54.30;99392.25;5283855;33;34890;-87
2023/04/13 05:37:40;;;;;;;11.88;4.87;;;;;;;9.76;51.99;99392.22;5292846;33;34291;-87
2023/04/13 05:40:44;;;;;;;9.13;4.75;;;;;;;10.07;53.58;99388.28;5279652;33;34575;-86
2023/04/13 05:43:48;;;;;;;10.05;4.95;;;;;;;10.47;51.12;99394.72;5278942;33;33630;-86
2023/04/13 05:46:51;;;;;;;10.93;5.57;;;;;;;10.90;51.72;99397.09;5279412;33;33912;-86
2023/04/13 05:49:54;;;;;;;9.52;5.07;;;;;;;11.26;48.72;99402.12;5279555;33;34474;-86
2023/04/13 05:52:57;;;;;;;10.63;5.32;;;;;;;11.42;50.62;99395.50;5307841;33;34487;-86
2023/04/13 05:56:01;;;;;;;8.32;5.12;;;;;;;11.62;50.87;99395.50;5299206;33;35464;-86
2023/04/13 05:59:04;;;;;;;9.15;5.05;;;;;;;11.61;49.79;99395.69;5294940;33;34143;-86
2023/04/13 06:02:08;;;;;;;8.95;5.40;;;;;;;11.48;49.67;99393.84;5268194;33;34442;-86
2023/04/13 06:05:13;;;;;;;9.75;5.10;;;;;;;11.41;49.97;99390.31;5291661;33;33589;-87
2023/04/13 06:08:16;;;;;;;7.68;4.82;;;;;;;11.57;48.31;99397.97;5291645;33;34751;-86
2023/04/13 06:11:21;;;;;;;9.27;4.95;;;;;;;11.31;48.12;99393.41;5280654;33;33668;-90
2023/04/13 06:14:24;;;;;;;7.30;4.95;;;;;;;11.23;49.38;99399.00;5297286;33;34028;-91
2023/04/13 06:17:27;;;;;;;8.57;5.47;;;;;;;11.21;49.40;99393.00;5278713;33;34982;-91
2023/04/13 06:20:32;;;;;;;10.15;5.03;;;;;;;11.39;49.84;99398.59;5278992;33;33829;-87
2023/04/13 06:23:36;;;;;;;6.57;4.55;;;;;;;11.40;48.11;99400.25;5268539;33;33619;-87
2023/04/13 06:26:41;;;;;;;8.45;4.68;;;;;;;11.34;48.40;99395.69;5270079;33;34904;-87
2023/04/13 06:29:44;;;;;;;8.20;5.20;;;;;;;11.17;48.10;99399.81;5297246;33;33800;-86
2023/04/13 06:32:48;;;;;;;9.60;5.43;;;;;;;11.30;49.02;99406.06;5295111;33;34843;-87
2023/04/13 06:35:51;;;;;;;12.27;4.90;;;;;;;11.32;47.89;99400.47;5278963;33;34950;-87
2023/04/13 06:38:55;;;;;;;9.95;5.12;;;;;;;11.66;50.05;99404.00;5278404;33;33872;-86
2023/04/13 06:42:00;;;;;;;9.40;5.12;;;;;;;11.89;47.83;99398.19;5279897;33;33358;-86
2023/04/13 06:45:12;;;;;;;9.55;5.28;;;;;;;12.66;45.49;99402.69;5295313;33;33904;-87
2023/04/13 06:48:16;;;;;;;13.40;5.68;;;;;;;13.37;44.28;99403.53;5302268;33;34093;-86
2023/04/13 06:51:20;;;;;;;8.73;4.93;;;;;;;13.43;43.07;99396.41;5289154;33;33509;-87
2023/04/13 06:54:24;;;;;;;17.33;5.03;;;;;;;13.51;42.35;99404.22;5279843;33;33794;-86
2023/04/13 06:57:29;;;;;;;8.02;5.15;;;;;;;13.11;43.09;99413.44;5290970;33;34620;-87
2023/04/13 07:00:33;;;;;;;8.57;5.15;;;;;;;12.75;43.89;99413.25;5291581;33;34129;-86
2023/04/13 07:03:36;;;;;;;10.35;5.25;;;;;;;12.90;44.78;99405.69;5279328;33;34520;-87
2023/04/13 07:06:40;;;;;;;11.20;4.90;;;;;;;13.15;43.81;99409.25;5304504;33;33624;-86
2023/04/13 07:09:44;;;;;;;8.80;4.82;;;;;;;13.37;43.65;99420.56;5288243;33;33792;-86
2023/04/13 07:12:50;;;;;;;7.28;4.45;;;;;;;13.05;43.00;99421.59;5283928;33;35555;-86
2023/04/13 07:15:54;;;;;;;9.93;5.25;;;;;;;13.08;43.98;99422.00;5269698;33;33521;-86
2023/04/13 07:18:59;;;;;;;15.38;5.07;;;;;;;13.05;44.11;99418.91;5294254;33;34281;-86
2023/04/13 07:22:03;;;;;;;12.60;4.95;;;;;;;12.76;44.72;99415.75;5295035;33;35414;-86
2023/04/13 07:25:07;;;;;;;8.90;5.10;;;;;;;12.75;45.45;99424.88;5309696;33;35182;-86
2023/04/13 07:28:11;;;;;;;9.32;5.05;;;;;;;12.93;45.37;99419.59;5306519;33;34344;-86
2023/04/13 07:31:15;;;;;;;9.43;5.10;;;;;;;13.27;44.72;99428.34;5294207;33;33570;-85
2023/04/13 07:34:19;;;;;;;8.88;5.15;;;;;;;13.19;43.85;99428.56;5283467;33;33378;-86
2023/04/13 07:37:22;;;;;;;7.18;5.05;;;;;;;13.01;44.01;99432.00;5300974;33;34621;-86
2023/04/13 07:40:25;;;;;;;9.18;5.07;;;;;;;13.18;44.62;99424.22;5294525;33;33804;-86
2023/04/13 07:43:29;;;;;;;10.70;4.82;;;;;;;13.82;43.60;99414.16;5282084;33;34092;-86
2023/04/13 07:46:32;;;;;;;9.73;5.45;;;;;;;14.20;42.59;99408.56;5294747;33;34479;-86
2023/04/13 07:49:36;;;;;;;8.80;4.95;;;;;;;14.69;41.43;99412.19;5314056;33;35316;-86
2023/04/13 07:52:41;;;;;;;14.63;5.35;;;;;;;14.78;40.35;99417.28;5316741;33;34252;-86
2023/04/13 07:55:44;;;;;;;10.20;5.12;;;;;;;14.89;40.91;99416.50;5344532;33;34246;-86
2023/04/13 07:58:47;;;;;;;8.13;5.53;;;;;;;15.14;42.13;99414.47;5332152;33;35079;-86
2023/04/13 08:01:50;;;;;;;9.55;5.37;;;;;;;15.39;39.17;99410.75;5331594;33;35313;-86
2023/04/13 08:04:54;;;;;;;7.68;4.60;;;;;;;15.54;39.00;99413.03;5315402;33;35261;-90
2023/04/13 08:07:58;;;;;;;11.10;4.87;;;;;;;15.17;40.31;99415.88;5294553;33;33577;-91
2023/04/13 08:11:01;;;;;;;11.02;5.18;;;;;;;15.08;39.72;99417.28;5276721;33;34673;-91
2023/04/13 08:14:08;;;;;;;7.30;4.53;;;;;;;14.82;40.58;99413.03;5278472;33;33951;-87
2023/04/13 08:17:11;;;;;;;7.43;4.75;;;;;;;15.27;40.65;99424.28;5296969;33;33941;-87
2023/04/13 08:20:15;;;;;;;11.85;4.75;;;;;;;15.24;42.90;99423.91;5294813;33;34745;-87
2023/04/13 08:23:20;;;;;;;8.20;4.82;;;;;;;15.62;38.82;99424.34;5303789;33;33365;-87
2023/04/13 08:26:23;;;;;;;8.88;4.95;;;;;;;15.75;39.15;99417.09;5310041;33;35293;-87
2023/04/13 08:29:26;;;;;;;6.30;4.87;;;;;;;16.10;38.49;99415.19;5289542;33;33310;-87
2023/04/13 08:32:29;;;;;;;12.55;4.50;;;;;;;15.85;38.57;99423.59;5296871;33;33406;-86
2023/04/13 08:35:35;;;;;;;10.23;4.28;;;;;;;15.64;38.24;99421.41;5298207;33;32494;-86
2023/04/13 08:38:38;;;;;;;5.15;3.28;;;;;;;15.59;39.80;99424.84;5283395;33;34243;-87
2023/04/13 08:41:44;;;;;;;7.60;3.80;;;;;;;15.95;37.69;99431.13;5281525;33;33459;-86
2023/04/13 08:44:49;;;;;;;5.20;3.45;;;;;;;15.79;37.81;99431.81;5307068;33;34100;-86
2023/04/13 08:47:52;;;;;;;5.85;3.30;;;;;;;15.73;37.03;99427.34;5297250;33;35043;-86
2023/04/13 08:50:58;;;;;;;8.95;3.42;;;;;;;15.76;37.29;99419.53;5318182;33;34170;-86
2023/04/13 08:54:03;;;;;;;4.62;3.12;;;;;;;16.24;37.07;99420.38;5296031;33;33872;-86
2023/04/13 08:57:10;;;;;;;5.32;3.40;;;;;;;16.18;36.59;99408.56;5313582;33;33668;-86
2023/04/13 09:00:19;;;;;;;9.65;4.15;;;;;;;16.12;37.25;99411.38;5308950;33;34027;-87
2023/04/13 09:03:28;;;;;;;4.30;3.62;;;;;;;16.49;36.59;99409.22;5308846;33;35545;-86
2023/04/13 09:06:34;;;;;;;4.90;3.37;;;;;;;16.36;36.07;99413.03;5308947;33;33530;-87
2023/04/13 09:09:41;;;;;;;6.28;3.70;;;;;;;16.18;37.90;99402.31;5311229;33;33833;-86
2023/04/13 09:12:46;;;;;;;9.68;3.58;;;;;;;16.33;37.22;99403.47;5310649;33;35565;-89
2023/04/13 09:15:49;;;;;;;8.40;4.07;;;;;;;16.29;37.44;99406.87;5289516;33;34595;-86
2023/04/13 09:18:56;;;;;;;10.05;4.10;;;;;;;16.35;38.43;99405.09;5298691;33;33586;-86
2023/04/13 09:22:11;;;;;;;6.57;3.87;;;;;;;16.52;37.26;99401.38;5310084;33;34246;-86
2023/04/13 09:25:26;;;;;;;6.93;3.45;;;;;;;16.98;37.19;99409.66;5308910;33;33636;-87
2023/04/13 09:28:33;;;;;;;7.03;3.57;;;;;;;17.13;36.67;99406.37;5296951;33;34787;-88
2023/04/13 09:31:39;;;;;;;7.85;3.47;;;;;;;17.64;35.89;99401.81;5309217;33;34041;-90
2023/04/13 09:35:03;;;;;;;10.48;3.50;;;;;;;18.25;34.66;99396.44;5297138;33;33957;-87
2023/04/13 09:38:07;;;;;;;4.85;3.15;;;;;;;18.38;33.57;99398.00;5297398;33;33885;-87
2023/04/13 09:41:10;;;;;;;4.78;3.10;;;;;;;18.75;32.63;99401.75;5308994;33;35265;-86
2023/04/13 09:44:23;;;;;;;4.22;2.55;;;;;;;18.27;32.89;99400.56;5295844;33;34400;-86
2023/04/13 09:47:39;;;;;;;2.62;2.20;;;;;;;18.27;31.92;99392.41;5308799;33;33674;-87
2023/04/13 09:50:43;;;;;;;4.32;2.67;;;;;;;18.07;32.28;99392.94;5308352;33;33509;-86
2023/04/13 09:53:47;;;;;;;5.18;3.08;;;;;;;18.17;33.33;99386.00;5308700;33;33969;-87
2023/04/13 09:56:55;;;;;;;6.10;3.50;;;;;;;18.77;32.45;99391.41;5276429;33;285703;-86
2023/04/13 10:00:00;;;;;;;6.55;3.08;;;;;;;19.42;32.95;99384.13;5294264;33;34720;-86
2023/04/13 10:03:14;;;;;;;7.22;3.15;;;;;;;19.43;30.43;99385.78;5291135;33;34654;-86
2023/04/13 10:06:19;;;;;;;7.57;3.47;;;;;;;19.48;31.00;99380.38;5305151;33;33907;-86
2023/04/13 10:09:24;;;;;;;4.47;2.90;;;;;;;19.25;30.87;99378.81;5284108;33;33818;-86
2023/04/13 10:12:30;;;;;;;4.70;3.15;;;;;;;19.57;30.89;99377.97;5300380;33;33948;-86
2023/04/13 10:15:36;;;;;;;3.60;2.85;;;;;;;19.62;29.45;99368.97;5290963;33;33931;-86
2023/04/13 10:19:14;;;;;;;6.72;3.17;;;;;;;19.06;30.89;99376.69;5302591;33;35186;-87
2023/04/13 10:22:19;;;;;;;5.00;3.30;;;;;;;18.71;31.97;99380.66;5278906;33;33654;-86
2023/04/13 10:25:22;;;;;;;3.75;2.90;;;;;;;18.84;31.57;99376.72;5296914;33;33634;-88
2023/04/13 10:28:48;;;;;;;4.15;2.85;;;;;;;18.88;32.71;99375.97;5300573;33;34313;-87
2023/04/13 10:31:55;;;;;;;3.10;2.80;;;;;;;18.68;31.67;99373.00;5294050;33;33854;-87
2023/04/13 10:35:08;;;;;;;5.53;3.00;;;;;;;18.86;31.95;99377.31;5298099;33;33522;-87
2023/04/13 10:38:11;;;;;;;3.67;2.83;;;;;;;18.43;33.46;99381.69;5303250;33;34472;-86
2023/04/13 10:41:24;;;;;;;5.87;2.87;;;;;;;18.45;32.88;99376.81;5297411;33;34088;-87
2023/04/13 10:44:40;;;;;;;6.10;2.75;;;;;;;18.21;32.78;99373.53;5267163;33;33855;-87
2023/04/13 10:47:43;;;;;;;5.53;3.10;;;;;;;18.30;32.61;99367.38;5299583;33;34740;-87
2023/04/13 10:50:59;;;;;;;4.53;3.53;;;;;;;18.07;32.87;99376.59;5292280;33;34655;-86
2023/04/13 10:54:06;;;;;;;4.32;3.00;;;;;;;17.29;34.55;99375.69;5299626;33;34226;-86
2023/04/13 10:57:10;;;;;;;5.00;3.37;;;;;;;17.08;35.97;99371.78;5302746;33;33814;-86
2023/04/13 11:00:20;;;;;;;5.07;3.12;;;;;;;17.12;35.54;99363.97;5295901;33;35321;-86
2023/04/13 11:03:29;;;;;;;6.32;3.72;;;;;;;17.10;36.76;99353.31;5300953;33;33457;-86
2023/04/13 11:06:36;;;;;;;5.43;3.15;;;;;;;17.48;35.50;99348.22;5302692;33;33800;-86
2023/04/13 11:09:42;;;;;;;3.83;2.80;;;;;;;17.61;36.90;99351.44;5303412;33;32728;-86
2023/04/13 11:12:52;;;;;;;4.07;3.17;;;;;;;17.35;35.87;99347.47;5276041;33;34455;-86
2023/04/13 11:16:05;;;;;;;5.90;3.30;;;;;;;17.34;35.80;99340.38;5279169;33;34673;-86
2023/04/13 11:19:08;;;;;;;8.43;3.20;;;;;;;17.68;35.51;99346.63;5277302;33;33455;-86
2023/04/13 11:22:18;;;;;;;6.20;3.28;;;;;;;17.97;35.92;99343.78;5308114;33;34953;-84
2023/04/13 11:25:21;;;;;;;4.32;3.33;;;;;;;18.53;34.76;99340.94;5304094;33;34210;-87
2023/04/13 11:28:36;;;;;;;10.10;3.62;;;;;;;18.66;35.11;99334.25;5303024;33;34408;-86
2023/04/13 11:31:40;;;;;;;4.68;3.50;;;;;;;19.00;35.98;99335.72;5303478;33;33967;-85
2023/04/13 11:34:45;;;;;;;7.95;3.58;;;;;;;19.44;33.43;99329.28;5311286;33;32834;-86
2023/04/13 11:37:51;;;;;;;5.28;3.33;;;;;;;19.71;33.83;99329.19;5301082;33;34320;-86
2023/04/13 11:41:02;;;;;;;4.75;3.03;;;;;;;20.41;32.87;99324.34;5300554;33;33440;-86
2023/04/13 11:44:17;;;;;;;9.25;3.37;;;;;;;20.43;33.96;99315.87;5295117;33;34043;-87
2023/04/13 11:47:23;;;;;;;6.53;3.75;;;;;;;20.08;33.43;99318.22;5295515;33;33805;-87
2023/04/13 11:50:26;;;;;;;6.03;3.22;;;;;;;19.67;33.10;99319.91;5294076;33;34364;-87
2023/04/13 11:53:32;;;;;;;5.12;3.45;;;;;;;20.02;34.15;99321.19;5300908;33;34139;-87
2023/04/13 11:56:35;;;;;;;5.20;3.30;;;;;;;20.13;32.69;99320.16;5286825;33;33694;-86
2023/04/13 11:59:39;;;;;;;8.27;3.35;;;;;;;20.18;32.40;99314.69;5286243;33;33623;-87
2023/04/13 12:02:43;;;;;;;5.70;3.10;;;;;;;20.42;32.46;99314.22;5288324;33;33953;-87
2023/04/13 12:06:03;;;;;;;6.57;2.60;;;;;;;20.52;31.61;99309.66;5288318;33;34551;-87
2023/04/13 12:09:08;;;;;;;4.20;2.60;;;;;;;20.36;31.32;99314.22;5281062;33;33549;-87
2023/04/13 12:12:21;;;;;;;3.22;2.58;;;;;;;20.56;31.10;99302.56;5281797;33;35091;-87
2023/04/13 12:15:29;;;;;;;4.47;2.28;;;;;;;20.64;31.55;99293.00;5293468;33;34272;-87
2023/04/13 12:18:48;;;;;;;3.15;2.30;;;;;;;20.67;30.71;99294.38;5308625;33;36390;-87
2023/04/13 12:21:54;;;;;;;5.07;2.72;;;;;;;20.23;31.47;99297.50;5288477;33;34589;-87
2023/04/13 12:25:00;;;;;;;5.15;2.45;;;;;;;20.11;32.03;99284.06;5291977;33;33605;-91
2023/04/13 12:28:04;;;;;;;4.55;1.98;;;;;;;19.90;32.08;99289.44;5304841;33;34204;-90
2023/04/13 12:31:09;;;;;;;3.95;2.20;;;;;;;19.55;31.56;99278.31;5290866;33;33895;-92
2023/04/13 12:34:11;;;;;;;6.00;2.50;;;;;;;19.48;32.64;99286.72;5292968;33;33521;-88
2023/04/13 12:37:14;;;;;;;3.42;2.70;;;;;;;19.23;33.83;99287.34;5289280;33;34648;-88
2023/04/13 12:40:18;;;;;;;5.55;3.05;;;;;;;19.07;33.64;99275.50;5282057;33;33724;-88
2023/04/13 12:43:21;;;;;;;5.00;2.62;;;;;;;18.95;33.54;99270.25;5286664;33;36745;-88
2023/04/13 12:46:25;;;;;;;4.25;2.55;;;;;;;19.36;33.57;99262.31;5273669;33;33796;-88
2023/04/13 12:49:28;;;;;;;5.28;2.85;;;;;;;19.61;32.55;99258.94;5302330;33;33919;-87
2023/04/13 12:52:31;;;;;;;6.57;3.00;;;;;;;19.79;32.68;99259.63;5289266;33;33235;-87
2023/04/13 12:55:34;;;;;;;3.03;2.70;;;;;;;19.62;33.99;99263.31;5298548;33;34924;-87
2023/04/13 12:58:37;;;;;;;5.43;2.47;;;;;;;19.52;33.37;99260.53;5279139;33;34032;-88
2023/04/13 13:01:41;;;;;;;4.93;2.55;;;;;;;19.54;34.62;99258.38;5280835;33;33909;-87
2023/04/13 13:04:46;;;;;;;6.82;2.67;;;;;;;19.86;31.92;99257.44;5273477;33;33916;-87
2023/04/13 13:07:49;;;;;;;3.65;3.08;;;;;;;19.82;33.68;99259.91;5295160;33;32605;-87
2023/04/13 13:10:52;;;;;;;2.80;2.50;;;;;;;19.82;33.31;99248.97;5280785;33;35361;-87
2023/04/13 13:13:55;;;;;;;7.47;3.00;;;;;;;20.22;33.02;99254.87;5289153;33;34484;-87
2023/04/13 13:16:59;;;;;;;4.20;2.67;;;;;;;20.07;32.61;99251.00;5277619;33;33706;-86
2023/04/13 13:20:03;;;;;;;3.92;2.58;;;;;;;19.94;33.40;99256.94;5281578;33;34105;-86
2023/04/13 13:23:10;;;;;;;5.78;2.50;;;;;;;19.85;32.37;99253.91;5278751;33;34871;-87
2023/04/13 13:26:14;;;;;;;5.62;2.55;;;;;;;20.32;32.48;99242.03;5296671;33;34922;-86
2023/04/13 13:29:22;;;;;;;3.62;2.55;;;;;;;20.94;33.10;99247.59;5273764;33;33943;-86
2023/04/13 13:32:28;;;;;;;8.38;2.58;;;;;;;20.56;32.12;99241.56;5291444;33;34035;-86
2023/04/13 13:35:32;;;;;;;2.10;1.90;;;;;;;20.02;31.46;99239.22;5289243;33;35816;-85
2023/04/13 13:38:35;;;;;;;8.52;2.50;;;;;;;19.76;32.36;99243.75;5307772;33;34381;-85
2023/04/13 13:41:38;;;;;;;4.78;1.70;;;;;;;19.51;33.48;99236.22;5295149;33;34273;-86
2023/04/13 13:44:44;;;;;;;4.07;1.92;;;;;;;19.37;31.90;99230.44;5280553;33;33855;-86
2023/04/13 13:47:54;;;;;;;1.65;1.55;;;;;;;18.83;32.53;99225.94;5309564;33;35111;-85
2023/04/13 13:50:59;;;;;;;2.50;2.00;;;;;;;18.90;33.21;99215.63;5300419;33;33058;-87
2023/04/13 13:54:02;;;;;;;3.58;2.17;;;;;;;18.88;32.69;99227.88;5282549;33;35813;-86
2023/04/13 13:57:07;;;;;;;7.20;2.62;;;;;;;18.57;33.79;99236.59;5289592;33;34300;-86
2023/04/13 14:00:18;;;;;;;4.78;2.30;;;;;;;18.69;34.01;99221.97;5290972;33;34315;-86
2023/04/13 14:03:22;;;;;;;2.90;2.12;;;;;;;18.71;33.98;99230.72;5302333;33;33936;-86
2023/04/13 14:06:26;;;;;;;4.05;1.90;;;;;;;18.69;33.84;99232.88;5274721;33;34187;-84
2023/04/13 14:09:30;;;;;;;4.32;2.17;;;;;;;18.53;34.89;99221.81;5308960;33;33973;-85
2023/04/13 14:12:43;;;;;;;6.32;2.10;;;;;;;18.50;34.91;99213.34;5296381;33;35291;-90
2023/04/13 14:15:46;;;;;;;3.53;2.15;;;;;;;18.40;34.53;99211.34;5298348;33;34263;-88
2023/04/13 14:18:49;;;;;;;4.55;2.20;;;;;;;18.18;34.93;99216.03;5293478;33;33487;-86
2023/04/13 14:21:55;;;;;;;3.95;2.28;;;;;;;18.04;35.31;99208.25;5307508;33;34079;-87
2023/04/13 14:24:58;;;;;;;2.55;1.92;;;;;;;17.81;35.68;99209.37;5309200;33;35392;-85
2023/04/13 14:28:01;;;;;;;2.30;2.03;;;;;;;17.58;36.02;99212.28;5287567;33;32202;-86
2023/04/13 14:31:04;;;;;;;5.00;2.33;;;;;;;17.59;36.87;99208.50;5293680;33;34377;-86
2023/04/13 14:34:08;;;;;;;5.25;1.90;;;;;;;17.60;36.51;99204.69;5294854;33;35261;-86
2023/04/13 14:37:22;;;;;;;2.50;2.17;;;;;;;17.45;37.57;99202.59;5286080;33;34864;-86
2023/04/13 14:40:27;;;;;;;1.83;1.70;;;;;;;17.33;38.53;99200.00;5302163;33;33619;-86
2023/04/13 14:43:29;;;;;;;3.90;2.33;;;;;;;17.18;37.76;99206.03;5303529;33;34120;-86
2023/04/13 14:46:33;;;;;;;4.62;2.17;;;;;;;17.09;38.70;99195.84;5289714;33;33946;-86
2023/04/13 14:49:36;;;;;;;6.07;2.33;;;;;;;17.13;38.32;99199.69;5301459;33;34207;-85
2023/04/13 14:52:44;;;;;;;6.53;2.53;;;;;;;17.15;37.69;99200.28;5275620;33;34954;-86
2023/04/13 14:55:47;;;;;;;2.65;2.12;;;;;;;17.08;38.62;99208.63;5298650;33;33839;-87
2023/04/13 14:58:51;;;;;;;2.20;2.00;;;;;;;16.95;38.32;99204.31;5290760;33;32877;-87
2023/04/13 15:01:54;;;;;;;3.95;2.35;;;;;;;16.93;38.72;99208.37;5279565;33;33955;-86
2023/04/13 15:04:57;;;;;;;3.65;2.33;;;;;;;16.88;38.80;99211.03;5284162;33;34045;-87
2023/04/13 15:08:01;;;;;;;5.03;2.45;;;;;;;16.78;39.06;99201.59;5274231;33;35043;-87
2023/04/13 15:11:07;;;;;;;4.03;2.33;;;;;;;16.80;39.17;99209.53;5275538;33;34069;-87
2023/04/13 15:14:10;;;;;;;3.00;2.00;;;;;;;16.68;40.06;99216.91;5291354;33;33951;-88
2023/04/13 15:17:13;;;;;;;4.75;2.12;;;;;;;16.60;39.47;99211.88;5317955;33;34078;-87
2023/04/13 15:20:17;;;;;;;6.07;2.50;;;;;;;16.59;39.10;99205.63;5295235;33;33996;-88
2023/04/13 15:23:22;;;;;;;3.60;1.90;;;;;;;16.54;40.01;99214.50;5355198;28;35428;-87
2023/04/13 15:26:26;;;;;;;3.75;1.98;;;;;;;16.42;41.42;99218.38;5313263;33;35676;-87
2023/04/13 15:29:32;;;;;;;6.12;2.22;;;;;;;16.39;41.94;99219.69;5290535;33;35362;-87
2023/04/13 15:32:35;;;;;;;6.03;2.33;;;;;;;16.31;44.09;99222.78;5304810;33;34012;-87
2023/04/13 15:35:38;;;;;;;4.50;2.37;;;;;;;16.22;42.77;99225.06;5279719;33;34581;-87
2023/04/13 15:38:42;;;;;;;4.07;2.03;;;;;;;16.15;43.75;99223.59;5293466;33;34156;-86
2023/04/13 15:41:45;;;;;;;5.70;2.15;;;;;;;16.08;45.97;99229.13;5319133;33;33810;-86
2023/04/13 15:44:48;;;;;;;6.30;2.50;;;;;;;15.89;46.88;99230.41;5320340;33;34139;-87
2023/04/13 15:47:51;;;;;;;3.70;2.25;;;;;;;15.82;49.17;99225.09;5304385;33;35382;-86
2023/04/13 15:51:00;;;;;;;3.70;2.22;;;;;;;15.68;48.90;99234.56;5306805;33;35390;-86
2023/04/13 15:54:04;;;;;;;4.60;2.42;;;;;;;15.68;52.23;99229.13;5307706;33;34988;-87
